Pagina principale
METAR-TAF:

METAR-TAF

Aeroporti :

Aeroporto di Innsbruck

Innsbruck, Austria

latitudine: 47-16N, longitudine: 011-21E, altezza: 581 m

Osservazione

Il bollettino è stato emesso 15 minuti fa, alle 12:50 UTC
Vento 2 kt da direzioni variabili
Temperature 16°C
Umidità 21%
Pressione 1030 hPa
Visibilità 10 km o più
nessuna nube inferiore a 1500 m e nessun cumulonembo

METAR: LOWI 021250Z VRB02KT CAVOK 16/M06 Q1030 NOSIG

Ora: 14:05 (13:05 UTC)

Previsione

Il bollettino è stato emesso 1 ora e 50 minuti fa, alle 11:15 UTC
Previsione valida dal 02 alle 12 UTC al 03 alle 12 UTC
Vento 2 kt da direzioni variabili
Visibilità 10 km o più
nessuna nube inferiore a 1500 m e nessun cumulonembo

TAF: LOWI 021115Z 0212/0312 VRB02KT CAVOK TX17/0215Z TNM02/0306Z

Osservazioni e previsioni meteorologiche di più di 4000 aeroporti (messaggi METAR e TAF).

Le stazioni disponibili sono rappresentate dai dischi gialli e rossi sulla carta.

Puntare il mouse per vedere il nome della stazione.

Clicca sopra per visualizzare le osservazioni e previsioni meteorologiche.

Per cambiare la mappa : fare clic sui pulsanti verdi con una croce nera per ingrandire, il pulsante verde con un trattino per diminuire, o sulla freccia verde per le mappe adiacenti.


METAR-TAF: